createdAt,value
2024-02-10T00:01:38.015Z,14.20
2024-02-10T00:04:09.887Z,14.10
2024-02-10T00:06:47.250Z,14.40
2024-02-10T00:09:18.980Z,14.10
2024-02-10T00:11:50.702Z,14.40
2024-02-10T00:14:23.050Z,14.30
2024-02-10T00:16:54.991Z,14.10
2024-02-10T00:19:28.438Z,13.90
2024-02-10T00:24:32.806Z,13.80
2024-02-10T00:27:04.886Z,13.10
2024-02-10T00:29:38.686Z,13.10
2024-02-10T00:34:59.848Z,12.10
2024-02-10T00:37:31.933Z,12.10
2024-02-10T00:40:12.208Z,12.70
2024-02-10T00:42:46.127Z,12.10
2024-02-10T00:45:17.832Z,11.60
2024-02-10T00:47:51.396Z,11.00
2024-02-10T00:50:24.047Z,12.60
2024-02-10T00:52:56.595Z,11.90
2024-02-10T00:55:32.311Z,10.80
2024-02-10T00:58:07.018Z,10.40
2024-02-10T01:00:38.754Z,9.60
2024-02-10T01:03:10.792Z,10.30
2024-02-10T01:05:42.647Z,10.00
2024-02-10T01:08:14.298Z,10.40
2024-02-10T01:10:46.041Z,9.10
2024-02-10T01:13:18.310Z,10.20
2024-02-10T01:15:56.317Z,10.60
2024-02-10T01:18:28.078Z,10.10
2024-02-10T01:21:01.641Z,9.90
2024-02-10T01:26:04.976Z,15.00
2024-02-10T01:28:37.187Z,11.20
2024-02-10T01:31:08.954Z,10.70
2024-02-10T01:33:44.305Z,10.40
2024-02-10T01:36:16.318Z,10.10
2024-02-10T01:38:48.192Z,10.80
2024-02-10T01:41:19.879Z,12.00
2024-02-10T01:43:54.032Z,11.40
2024-02-10T01:46:29.699Z,11.90
2024-02-10T01:49:02.646Z,11.60
2024-02-10T01:51:34.338Z,12.40
2024-02-10T01:54:06.089Z,11.60
2024-02-10T01:56:40.076Z,12.50
2024-02-10T01:59:14.223Z,12.30
2024-02-10T02:01:49.041Z,12.90
2024-02-10T02:04:24.262Z,12.00
2024-02-10T02:06:58.414Z,12.00
2024-02-10T02:09:30.450Z,12.10
2024-02-10T02:12:08.231Z,12.10
2024-02-10T02:14:40.339Z,12.70
2024-02-10T02:17:12.060Z,12.50
2024-02-10T02:19:44.018Z,14.60
2024-02-10T02:22:15.775Z,12.90
2024-02-10T02:24:48.622Z,12.80
2024-02-10T02:27:20.608Z,12.60
2024-02-10T02:29:52.291Z,11.90
2024-02-10T02:32:25.226Z,12.50
2024-02-10T02:34:57.113Z,12.60
2024-02-10T02:37:34.206Z,15.70
2024-02-10T02:40:07.121Z,12.20
2024-02-10T02:42:38.852Z,13.20
2024-02-10T02:45:12.199Z,13.90
2024-02-10T02:47:44.104Z,11.80
2024-02-10T02:50:17.325Z,16.60
2024-02-10T02:52:49.052Z,19.50
2024-02-10T02:55:21.047Z,14.20
2024-02-10T02:57:52.967Z,12.90
2024-02-10T03:00:24.676Z,12.60
2024-02-10T03:03:01.054Z,11.60
2024-02-10T03:05:33.336Z,12.40
2024-02-10T03:08:08.293Z,12.60
2024-02-10T03:10:40.290Z,12.30
2024-02-10T03:13:12.020Z,11.90
2024-02-10T03:15:47.668Z,13.30
2024-02-10T03:18:19.763Z,12.90
2024-02-10T03:20:51.487Z,12.70
2024-02-10T03:23:23.272Z,13.30
2024-02-10T03:25:58.051Z,12.70
2024-02-10T03:28:31.444Z,12.00
2024-02-10T03:31:04.653Z,14.00
2024-02-10T03:33:37.510Z,13.60
2024-02-10T03:36:09.298Z,11.80
2024-02-10T03:38:40.922Z,13.80
2024-02-10T03:41:14.853Z,14.60
2024-02-10T03:43:46.565Z,13.80
2024-02-10T03:46:23.221Z,12.70
2024-02-10T03:48:54.992Z,12.90
2024-02-10T03:51:27.679Z,12.80
2024-02-10T03:53:59.332Z,15.40
2024-02-10T03:56:32.069Z,13.20
2024-02-10T03:59:04.163Z,12.70
2024-02-10T04:01:36.027Z,12.90
2024-02-10T04:04:07.755Z,12.90
2024-02-10T04:06:41.919Z,12.30
2024-02-10T04:09:13.616Z,12.30
2024-02-10T04:11:47.676Z,12.30
2024-02-10T04:14:22.018Z,12.50
2024-02-10T04:16:54.308Z,13.50
2024-02-10T04:19:28.118Z,13.00
2024-02-10T04:21:59.858Z,13.70
2024-02-10T04:24:31.574Z,12.70
2024-02-10T04:27:03.453Z,12.90
2024-02-10T04:29:37.375Z,12.70
2024-02-10T04:32:11.693Z,13.50
2024-02-10T04:34:45.765Z,13.20
2024-02-10T04:37:21.232Z,12.00
2024-02-10T04:39:52.991Z,12.50
2024-02-10T04:42:25.585Z,12.40
2024-02-10T04:44:59.850Z,13.40
2024-02-10T04:47:34.229Z,12.50
2024-02-10T04:50:06.178Z,13.30
2024-02-10T04:52:40.002Z,13.00
2024-02-10T04:55:12.034Z,14.40
2024-02-10T04:57:43.998Z,14.10
2024-02-10T05:00:17.169Z,14.50
2024-02-10T05:02:53.631Z,14.20
2024-02-10T05:05:26.572Z,13.00
2024-02-10T05:07:59.575Z,14.30
2024-02-10T05:10:31.374Z,14.30
2024-02-10T05:13:03.147Z,14.60
2024-02-10T05:15:34.893Z,14.30
2024-02-10T05:18:07.160Z,14.10
2024-02-10T05:20:39.247Z,14.10
2024-02-10T05:23:12.960Z,13.70
2024-02-10T05:25:44.849Z,13.60
2024-02-10T05:28:16.550Z,14.90
2024-02-10T05:30:48.242Z,15.10
2024-02-10T05:33:20.014Z,15.30
2024-02-10T05:35:51.740Z,14.50
2024-02-10T05:38:23.368Z,14.30
2024-02-10T05:40:55.709Z,14.90
2024-02-10T05:43:27.459Z,15.00
2024-02-10T05:46:02.533Z,14.00
2024-02-10T05:48:34.450Z,13.90
2024-02-10T05:51:07.104Z,14.50
2024-02-10T05:53:38.959Z,15.30
2024-02-10T05:56:10.703Z,14.10
2024-02-10T05:58:45.609Z,14.20
2024-02-10T06:01:21.037Z,12.80
2024-02-10T06:03:56.180Z,13.50
2024-02-10T06:06:28.020Z,12.50
2024-02-10T06:09:00.365Z,14.40
2024-02-10T06:11:34.400Z,13.60
2024-02-10T06:14:08.948Z,13.90
2024-02-10T06:16:41.839Z,13.80
2024-02-10T06:19:13.914Z,13.40
2024-02-10T06:21:46.555Z,13.40
2024-02-10T06:24:18.762Z,15.10
2024-02-10T06:26:51.426Z,13.90
2024-02-10T06:29:23.062Z,12.30
2024-02-10T06:31:57.463Z,14.10
2024-02-10T06:34:29.307Z,12.90
2024-02-10T06:37:00.938Z,12.40
2024-02-10T06:39:32.571Z,11.70
2024-02-10T06:42:04.571Z,11.80
2024-02-10T06:44:39.830Z,12.90
2024-02-10T06:47:15.182Z,12.60
2024-02-10T06:49:47.971Z,11.60
2024-02-10T06:52:21.286Z,31.90
2024-02-10T06:54:54.694Z,54.40
2024-02-10T06:57:28.519Z,21.40
2024-02-10T07:00:05.019Z,14.30
2024-02-10T07:02:36.604Z,14.60
2024-02-10T07:05:09.707Z,13.00
2024-02-10T07:07:43.165Z,12.00
2024-02-10T07:12:59.441Z,17.40
2024-02-10T07:15:33.278Z,14.00
2024-02-10T07:18:08.564Z,15.20
2024-02-10T07:20:42.279Z,15.90
2024-02-10T07:25:47.841Z,14.60
2024-02-10T07:28:22.910Z,15.30
2024-02-10T07:30:54.695Z,15.10
2024-02-10T07:33:27.054Z,15.00
2024-02-10T07:36:01.672Z,13.80
2024-02-10T07:38:33.779Z,12.80
2024-02-10T07:41:05.458Z,16.40
2024-02-10T07:43:37.145Z,13.70
2024-02-10T07:46:08.818Z,14.50
2024-02-10T07:48:42.349Z,15.00
2024-02-10T07:53:45.991Z,14.10
2024-02-10T07:56:17.694Z,14.50
2024-02-10T07:58:49.403Z,14.70
2024-02-10T08:01:21.949Z,11.80
2024-02-10T08:03:55.791Z,16.70
2024-02-10T08:06:28.340Z,12.00
2024-02-10T08:09:02.950Z,14.70
2024-02-10T08:11:34.698Z,17.20
2024-02-10T08:14:06.748Z,13.30
2024-02-10T08:16:39.569Z,16.70
2024-02-10T08:19:11.415Z,27.80
2024-02-10T08:21:45.148Z,22.80
2024-02-10T08:24:16.896Z,15.10
2024-02-10T08:26:50.477Z,14.30
2024-02-10T08:29:22.128Z,14.30
2024-02-10T08:31:53.936Z,16.30
2024-02-10T08:34:27.956Z,73.40
2024-02-10T08:37:00.679Z,25.30
2024-02-10T08:39:32.499Z,17.90
2024-02-10T08:42:07.204Z,17.50
2024-02-10T08:44:39.136Z,17.10
2024-02-10T08:47:10.810Z,17.90
2024-02-10T08:49:44.360Z,16.50
2024-02-10T08:52:18.727Z,25.60
2024-02-10T08:54:50.955Z,21.80
2024-02-10T08:57:25.955Z,16.70
2024-02-10T08:59:57.549Z,18.90
2024-02-10T09:02:29.193Z,17.50
2024-02-10T09:05:00.909Z,20.40
2024-02-10T09:07:32.687Z,17.20
2024-02-10T09:10:05.252Z,18.40
2024-02-10T09:12:37.366Z,17.00
2024-02-10T09:15:09.366Z,16.40
2024-02-10T09:17:41.244Z,29.20
2024-02-10T09:20:14.774Z,37.00
2024-02-10T09:25:21.077Z,20.80
2024-02-10T09:27:54.157Z,20.10
2024-02-10T09:30:26.885Z,17.30
2024-02-10T09:33:01.360Z,19.20
2024-02-10T09:35:41.408Z,20.40
2024-02-10T09:38:14.645Z,19.40
2024-02-10T09:40:46.685Z,19.30
2024-02-10T09:43:19.561Z,18.20
2024-02-10T09:45:51.333Z,18.30
2024-02-10T09:48:25.044Z,19.30
2024-02-10T09:50:56.802Z,18.70
2024-02-10T09:53:28.399Z,19.40
2024-02-10T09:56:03.144Z,43.20
2024-02-10T09:58:36.870Z,20.50
2024-02-10T10:01:12.487Z,18.20
2024-02-10T10:03:44.280Z,16.60
2024-02-10T10:06:21.717Z,16.20
2024-02-10T10:08:55.244Z,18.20
2024-02-10T10:13:59.477Z,17.60
2024-02-10T10:16:31.225Z,18.10
2024-02-10T10:19:03.450Z,20.80
2024-02-10T10:21:37.111Z,19.20
2024-02-10T10:26:40.282Z,15.60
2024-02-10T10:29:12.593Z,13.60
2024-02-10T10:31:45.842Z,15.50
2024-02-10T10:34:24.263Z,14.70
2024-02-10T10:36:59.884Z,72.70
2024-02-10T10:39:38.134Z,37.80
2024-02-10T10:42:13.009Z,20.50
2024-02-10T10:44:46.978Z,16.70
2024-02-10T10:47:23.899Z,14.90
2024-02-10T10:49:55.697Z,15.00
2024-02-10T10:52:31.461Z,16.30
2024-02-10T10:55:03.992Z,16.00
2024-02-10T10:57:37.698Z,16.40
2024-02-10T11:00:13.705Z,16.20
2024-02-10T11:02:48.154Z,15.60
2024-02-10T11:05:21.180Z,16.30
2024-02-10T11:08:03.235Z,11.50
2024-02-10T11:10:39.148Z,16.70
2024-02-10T11:13:22.519Z,17.60
2024-02-10T11:16:13.992Z,19.10
2024-02-10T11:18:57.965Z,18.40
2024-02-10T11:24:12.883Z,18.50
2024-02-10T11:26:47.825Z,73.60
2024-02-10T11:29:20.457Z,32.00
2024-02-10T11:31:52.456Z,22.30
2024-02-10T11:34:33.762Z,18.70
2024-02-10T11:37:06.560Z,21.20
2024-02-10T11:39:38.444Z,21.70
2024-02-10T11:42:12.665Z,18.30
2024-02-10T11:44:47.557Z,18.10
2024-02-10T11:47:22.827Z,21.10
2024-02-10T11:49:56.598Z,22.00
2024-02-10T11:52:30.448Z,24.00
2024-02-10T11:55:05.470Z,21.80
2024-02-10T11:57:38.893Z,20.90
2024-02-10T12:00:14.239Z,22.80
2024-02-10T12:02:49.033Z,47.70
2024-02-10T12:05:22.112Z,40.30
2024-02-10T12:07:57.143Z,46.90
2024-02-10T12:10:28.968Z,57.10
2024-02-10T12:13:01.692Z,46.20
2024-02-10T12:15:35.204Z,39.20
2024-02-10T12:20:41.023Z,26.80
2024-02-10T12:23:14.675Z,30.20
2024-02-10T12:25:46.451Z,20.80
2024-02-10T12:28:18.724Z,19.60
2024-02-10T12:30:54.998Z,19.40
2024-02-10T12:33:26.783Z,17.50
2024-02-10T12:35:59.849Z,16.10
2024-02-10T12:38:31.802Z,18.90
2024-02-10T12:41:03.771Z,16.30
2024-02-10T12:43:38.591Z,16.00
2024-02-10T12:46:11.783Z,15.30
2024-02-10T12:48:43.636Z,17.20
2024-02-10T12:51:16.884Z,16.20
2024-02-10T12:53:55.838Z,16.50
2024-02-10T12:56:28.774Z,81.00
2024-02-10T12:59:08.036Z,18.10
2024-02-10T13:01:42.670Z,19.30
2024-02-10T13:04:22.462Z,18.80
2024-02-10T13:06:54.248Z,34.40
2024-02-10T13:09:28.765Z,15.70
2024-02-10T13:12:02.680Z,18.50
2024-02-10T13:14:34.340Z,20.00
2024-02-10T13:17:08.002Z,19.50
2024-02-10T13:19:40.156Z,21.10
2024-02-10T13:22:12.813Z,18.90
2024-02-10T13:24:44.600Z,18.10
2024-02-10T13:27:16.596Z,18.30
2024-02-10T13:29:48.342Z,17.40
2024-02-10T13:32:24.823Z,15.30
2024-02-10T13:35:14.704Z,15.40
2024-02-10T13:38:08.859Z,16.50
2024-02-10T13:40:59.004Z,18.80
2024-02-10T13:43:49.252Z,21.80
2024-02-10T13:46:39.549Z,21.70
2024-02-10T13:49:29.848Z,28.50
2024-02-10T13:52:20.390Z,48.30
2024-02-10T13:55:10.856Z,39.60
2024-02-10T13:58:00.891Z,56.40
2024-02-10T14:00:36.251Z,25.60
2024-02-10T14:03:10.101Z,37.20
2024-02-10T14:05:54.082Z,23.80
2024-02-10T14:08:39.129Z,18.90
2024-02-10T14:11:21.503Z,39.40
2024-02-10T14:13:55.221Z,43.80
2024-02-10T14:16:31.336Z,38.70
2024-02-10T14:19:13.978Z,20.60
2024-02-10T14:21:49.612Z,22.10
2024-02-10T14:24:23.675Z,31.20
2024-02-10T14:27:02.884Z,25.70
2024-02-10T14:29:36.834Z,26.00
2024-02-10T14:35:02.747Z,65.60
2024-02-10T14:37:49.632Z,23.90
2024-02-10T14:40:36.017Z,27.80
2024-02-10T14:43:09.264Z,19.10
2024-02-10T14:45:41.562Z,30.90
2024-02-10T14:48:15.083Z,17.80
2024-02-10T14:53:27.404Z,24.70
2024-02-10T14:56:05.493Z,32.10
2024-02-10T14:58:43.239Z,23.90
2024-02-10T15:01:15.133Z,31.20
2024-02-10T15:03:46.931Z,46.50
2024-02-10T15:06:21.912Z,34.30
2024-02-10T15:08:55.632Z,21.80
2024-02-10T15:11:29.503Z,20.40
2024-02-10T15:14:01.593Z,24.00
2024-02-10T15:16:33.528Z,18.90
2024-02-10T15:19:05.585Z,18.50
2024-02-10T15:21:37.287Z,19.90
2024-02-10T15:24:12.337Z,20.20
2024-02-10T15:26:46.106Z,19.80
2024-02-10T15:29:21.211Z,22.10
2024-02-10T15:31:53.369Z,40.80
2024-02-10T15:34:25.483Z,17.00
2024-02-10T15:36:57.695Z,14.90
2024-02-10T15:39:29.372Z,18.40
2024-02-10T15:42:01.156Z,19.10
2024-02-10T15:44:32.890Z,19.40
2024-02-10T15:47:08.567Z,24.40
2024-02-10T15:49:44.698Z,22.80
2024-02-10T15:52:20.895Z,22.80
2024-02-10T15:54:52.720Z,25.30
2024-02-10T15:57:25.556Z,24.00
2024-02-10T15:59:57.367Z,25.60
2024-02-10T16:02:29.157Z,23.00
2024-02-10T16:05:10.640Z,25.70
2024-02-10T16:07:47.461Z,25.60
2024-02-10T16:10:23.156Z,27.10
2024-02-10T16:12:57.652Z,24.60
2024-02-10T16:15:29.278Z,26.10
2024-02-10T16:18:01.054Z,22.80
2024-02-10T16:20:32.737Z,21.40
2024-02-10T16:23:04.757Z,23.90
2024-02-10T16:25:38.629Z,25.90
2024-02-10T16:28:10.600Z,23.60
2024-02-10T16:30:44.285Z,26.20
2024-02-10T16:33:16.020Z,25.10
2024-02-10T16:35:47.805Z,28.10
2024-02-10T16:38:19.569Z,27.80
2024-02-10T16:40:55.247Z,28.80
2024-02-10T16:43:27.048Z,28.60
2024-02-10T16:45:58.966Z,36.30
2024-02-10T16:48:32.984Z,28.80
2024-02-10T16:51:05.030Z,30.70
2024-02-10T16:53:37.004Z,33.20
2024-02-10T16:56:09.323Z,31.50
2024-02-10T16:58:41.361Z,39.10
2024-02-10T17:01:13.713Z,38.00
2024-02-10T17:03:45.558Z,36.60
2024-02-10T17:06:21.148Z,40.50
2024-02-10T17:08:52.880Z,45.30
2024-02-10T17:11:24.569Z,44.70
2024-02-10T17:13:56.325Z,47.60
2024-02-10T17:16:28.027Z,43.50
2024-02-10T17:18:59.850Z,46.90
2024-02-10T17:21:31.632Z,42.90
2024-02-10T17:24:05.642Z,36.80
2024-02-10T17:26:41.319Z,40.60
2024-02-10T17:29:13.088Z,33.20
2024-02-10T17:31:47.488Z,36.40
2024-02-10T17:34:20.171Z,28.30
2024-02-10T17:36:51.886Z,29.60
2024-02-10T17:39:29.491Z,32.50
2024-02-10T17:42:01.146Z,33.70
2024-02-10T17:44:33.420Z,43.50
2024-02-10T17:47:05.060Z,42.20
2024-02-10T17:49:46.120Z,38.60
2024-02-10T17:52:23.625Z,33.60
2024-02-10T17:54:55.265Z,35.10
2024-02-10T17:57:28.708Z,36.80
2024-02-10T18:02:32.312Z,36.90
2024-02-10T18:05:04.663Z,37.50
2024-02-10T18:07:36.992Z,36.10
2024-02-10T18:10:09.270Z,34.10
2024-02-10T18:12:40.894Z,34.20
2024-02-10T18:15:16.412Z,42.30
2024-02-10T18:17:54.227Z,30.30
2024-02-10T18:20:28.147Z,34.30
2024-02-10T18:22:59.947Z,31.50
2024-02-10T18:25:32.654Z,29.40
2024-02-10T18:28:10.674Z,39.20
2024-02-10T18:30:46.513Z,38.90
2024-02-10T18:33:19.773Z,43.30
2024-02-10T18:35:51.912Z,37.30
2024-02-10T18:38:26.057Z,35.70
2024-02-10T18:40:58.682Z,37.80
2024-02-10T18:43:31.499Z,37.40
2024-02-10T18:46:03.486Z,35.80
2024-02-10T18:48:35.215Z,36.90
2024-02-10T18:51:09.583Z,34.60
2024-02-10T18:53:41.226Z,32.20
2024-02-10T18:56:12.864Z,35.60
2024-02-10T18:58:46.006Z,39.40
2024-02-10T19:01:28.150Z,91.60
2024-02-10T19:04:00.502Z,75.30
2024-02-10T19:06:32.576Z,50.50
2024-02-10T19:09:05.325Z,45.10
2024-02-10T19:11:38.061Z,45.70
2024-02-10T19:14:11.755Z,38.00
2024-02-10T19:16:53.198Z,39.00
2024-02-10T19:19:29.010Z,44.50
2024-02-10T19:22:04.342Z,38.10
2024-02-10T19:24:41.825Z,36.90
2024-02-10T19:27:13.923Z,40.70
2024-02-10T19:29:48.820Z,42.50
2024-02-10T19:32:20.535Z,40.70
2024-02-10T19:34:52.434Z,40.50
2024-02-10T19:37:25.467Z,35.40
2024-02-10T19:39:59.469Z,42.30
2024-02-10T19:42:33.750Z,38.30
2024-02-10T19:45:06.535Z,47.20
2024-02-10T19:47:40.299Z,37.20
2024-02-10T19:50:13.292Z,42.00
2024-02-10T19:52:45.201Z,49.40
2024-02-10T19:55:37.154Z,49.80
2024-02-10T19:58:13.675Z,37.80
2024-02-10T20:00:45.586Z,48.70
2024-02-10T20:03:17.235Z,41.00
2024-02-10T20:05:48.996Z,45.10
2024-02-10T20:08:21.548Z,38.30
2024-02-10T20:10:55.389Z,45.50
2024-02-10T20:13:27.855Z,35.40
2024-02-10T20:16:00.535Z,36.40
2024-02-10T20:18:33.820Z,42.90
2024-02-10T20:21:08.063Z,38.80
2024-02-10T20:23:40.902Z,43.30
2024-02-10T20:26:14.262Z,43.00
2024-02-10T20:28:46.100Z,43.50
2024-02-10T20:31:19.500Z,40.50
2024-02-10T20:33:54.676Z,42.20
2024-02-10T20:36:28.268Z,42.50
2024-02-10T20:39:01.687Z,40.30
2024-02-10T20:41:33.675Z,42.40
2024-02-10T20:44:08.183Z,43.20
2024-02-10T20:46:42.172Z,41.00
2024-02-10T20:49:13.923Z,42.80
2024-02-10T20:51:48.129Z,37.10
2024-02-10T20:54:21.691Z,36.70
2024-02-10T20:56:54.465Z,35.90
2024-02-10T20:59:26.137Z,36.20
2024-02-10T21:01:57.958Z,41.00
2024-02-10T21:04:30.266Z,38.90
2024-02-10T21:07:04.869Z,39.20
2024-02-10T21:09:36.537Z,34.10
2024-02-10T21:12:09.502Z,37.00
2024-02-10T21:14:43.508Z,36.30
2024-02-10T21:17:15.230Z,35.80
2024-02-10T21:19:47.719Z,31.70
2024-02-10T21:22:19.643Z,35.20
2024-02-10T21:24:51.325Z,27.10
2024-02-10T21:27:26.459Z,27.60
2024-02-10T21:29:59.171Z,29.90
2024-02-10T21:32:30.903Z,35.90
2024-02-10T21:35:03.052Z,32.30
2024-02-10T21:37:37.634Z,33.90
2024-02-10T21:40:09.795Z,35.50
2024-02-10T21:42:41.542Z,37.40
2024-02-10T21:45:18.630Z,34.20
2024-02-10T21:47:53.018Z,35.40
2024-02-10T21:50:24.911Z,37.80
2024-02-10T21:52:57.018Z,41.60
2024-02-10T21:55:29.053Z,42.10
2024-02-10T21:58:01.810Z,44.90
2024-02-10T22:00:33.504Z,40.50
2024-02-10T22:03:05.158Z,40.50
2024-02-10T22:05:37.565Z,43.00
2024-02-10T22:08:11.977Z,41.40
2024-02-10T22:10:43.694Z,42.00
2024-02-10T22:13:15.330Z,37.60
2024-02-10T22:15:51.659Z,39.70
2024-02-10T22:18:23.526Z,35.40
2024-02-10T22:20:56.624Z,45.40
2024-02-10T22:23:28.275Z,42.20
2024-02-10T22:26:00.020Z,45.50
2024-02-10T22:28:33.227Z,47.30
2024-02-10T22:31:07.393Z,38.40
2024-02-10T22:33:40.149Z,44.10
2024-02-10T22:36:12.576Z,43.10
2024-02-10T22:38:44.577Z,43.10
2024-02-10T22:41:16.329Z,32.90
2024-02-10T22:43:48.801Z,40.90
2024-02-10T22:46:20.652Z,39.40
2024-02-10T22:48:52.408Z,35.30
2024-02-10T22:51:26.563Z,39.40
2024-02-10T22:53:58.225Z,32.00
2024-02-10T22:56:29.877Z,39.70
2024-02-10T22:59:02.668Z,36.80
2024-02-10T23:01:34.370Z,36.40
2024-02-10T23:04:14.727Z,31.50
2024-02-10T23:06:53.018Z,35.70
2024-02-10T23:09:35.445Z,36.50
2024-02-10T23:12:07.633Z,40.10
2024-02-10T23:14:47.201Z,31.30
2024-02-10T23:17:24.489Z,35.40
2024-02-10T23:19:58.548Z,39.20
2024-02-10T23:22:31.048Z,34.40
2024-02-10T23:25:04.354Z,31.90
2024-02-10T23:27:36.079Z,32.20
2024-02-10T23:30:09.439Z,34.80
2024-02-10T23:32:41.161Z,29.60
2024-02-10T23:35:12.897Z,33.30
2024-02-10T23:37:44.669Z,33.50
2024-02-10T23:40:16.383Z,33.40
2024-02-10T23:42:50.094Z,36.90
2024-02-10T23:45:22.531Z,45.90
2024-02-10T23:47:54.487Z,41.40
2024-02-10T23:50:29.365Z,36.10
2024-02-10T23:53:02.562Z,32.90
2024-02-10T23:55:39.284Z,32.10
2024-02-10T23:58:12.661Z,32.10
